createdAt,value
2022-08-07T00:00:30.624Z,102158.83
2022-08-07T00:02:57.406Z,102160.52
2022-08-07T00:05:26.299Z,102158.20
2022-08-07T00:07:59.639Z,102160.31
2022-08-07T00:10:30.747Z,102163.03
2022-08-07T00:13:17.421Z,102159.38
2022-08-07T00:15:52.651Z,102161.74
2022-08-07T00:18:25.141Z,102164.77
2022-08-07T00:21:03.500Z,102159.54
2022-08-07T00:23:39.628Z,102163.15
2022-08-07T00:26:18.484Z,102165.70
2022-08-07T00:28:58.159Z,102161.66
2022-08-07T00:31:37.679Z,102161.80
2022-08-07T00:34:09.001Z,102161.91
2022-08-07T00:36:43.053Z,102161.26
2022-08-07T00:39:16.700Z,102163.09
2022-08-07T00:42:01.702Z,102161.98
2022-08-07T00:44:33.254Z,102157.98
2022-08-07T00:47:02.755Z,102155.55
2022-08-07T00:50:21.131Z,102153.38
2022-08-07T00:52:19.870Z,102156.54
2022-08-07T00:54:53.932Z,102157.60
2022-08-07T00:57:26.253Z,102154.64
2022-08-07T00:59:54.435Z,102155.91
2022-08-07T01:02:28.550Z,102155.97
2022-08-07T01:04:58.649Z,102158.55
2022-08-07T01:07:29.253Z,102155.27
2022-08-07T01:10:06.967Z,102159.29
2022-08-07T01:12:53.082Z,102160.80
2022-08-07T01:15:21.761Z,102161.95
2022-08-07T01:17:48.969Z,102157.13
2022-08-07T01:20:20.443Z,102154.16
2022-08-07T01:23:09.099Z,102155.06
2022-08-07T01:25:55.311Z,102155.27
2022-08-07T01:28:24.270Z,102148.38
2022-08-07T01:30:54.238Z,102153.39
2022-08-07T01:33:24.818Z,102151.55
2022-08-07T01:36:06.187Z,102147.48
2022-08-07T01:38:33.753Z,102147.30
2022-08-07T01:41:04.260Z,102148.42
2022-08-07T01:43:38.344Z,102148.22
2022-08-07T01:46:08.389Z,102149.41
2022-08-07T01:48:46.666Z,102152.98
2022-08-07T01:52:03.195Z,102155.23
2022-08-07T01:54:32.549Z,102155.16
2022-08-07T01:57:24.632Z,102162.02
2022-08-07T02:00:03.183Z,102161.23
2022-08-07T02:03:19.359Z,102163.86
2022-08-07T02:05:48.613Z,102160.80
2022-08-07T02:08:30.706Z,102161.53
2022-08-07T02:11:01.017Z,102163.73
2022-08-07T02:13:56.796Z,102159.52
2022-08-07T02:16:28.753Z,102158.02
2022-08-07T02:19:05.540Z,102155.64
2022-08-07T02:21:56.209Z,102154.67
2022-08-07T02:24:26.052Z,102151.27
2022-08-07T02:27:02.555Z,102156.27
2022-08-07T02:29:31.880Z,102160.90
2022-08-07T02:32:03.535Z,102162.69
2022-08-07T02:34:32.938Z,102163.38
2022-08-07T02:37:08.200Z,102160.02
2022-08-07T02:40:02.398Z,102161.73
2022-08-07T02:42:32.716Z,102159.09
2022-08-07T02:45:18.432Z,102158.60
2022-08-07T02:47:49.908Z,102158.63
2022-08-07T02:50:18.440Z,102155.79
2022-08-07T02:53:00.816Z,102150.33
2022-08-07T02:56:03.353Z,102148.40
2022-08-07T02:58:27.192Z,102149.70
2022-08-07T03:00:58.370Z,102148.79
2022-08-07T03:03:49.342Z,102143.48
2022-08-07T03:06:26.158Z,102147.77
2022-08-07T03:09:03.822Z,102146.72
2022-08-07T03:11:38.418Z,102153.28
2022-08-07T03:14:07.045Z,102154.02
2022-08-07T03:16:38.444Z,102151.30
2022-08-07T03:19:06.132Z,102157.13
2022-08-07T03:21:33.455Z,102154.98
2022-08-07T03:24:19.601Z,102155.95
2022-08-07T03:26:58.574Z,102157.63
2022-08-07T03:29:49.653Z,102155.63
2022-08-07T03:32:34.520Z,102153.62
2022-08-07T03:35:17.748Z,102154.63
2022-08-07T03:37:55.198Z,102153.55
2022-08-07T03:40:30.675Z,102152.64
2022-08-07T03:43:04.543Z,102152.90
2022-08-07T03:45:43.606Z,102157.64
2022-08-07T03:48:15.855Z,102161.60
2022-08-07T03:50:55.662Z,102163.18
2022-08-07T03:53:50.040Z,102163.58
2022-08-07T03:56:33.315Z,102166.30
2022-08-07T03:59:08.993Z,102169.08
2022-08-07T04:01:45.756Z,102167.68
2022-08-07T04:04:17.735Z,102170.02
2022-08-07T04:06:46.253Z,102170.71
2022-08-07T04:09:19.753Z,102169.44
2022-08-07T04:12:23.896Z,102168.35
2022-08-07T04:14:43.578Z,102166.13
2022-08-07T04:17:20.149Z,102167.73
2022-08-07T04:20:00.020Z,102163.27
2022-08-07T04:22:30.167Z,102169.67
2022-08-07T04:25:01.406Z,102167.16
2022-08-07T04:27:36.320Z,102171.38
2022-08-07T04:30:21.014Z,102174.03
2022-08-07T04:32:58.126Z,102172.09
2022-08-07T04:35:25.856Z,102175.89
2022-08-07T04:38:02.952Z,102173.90
2022-08-07T04:40:32.480Z,102173.73
2022-08-07T04:43:02.180Z,102175.96
2022-08-07T04:46:01.875Z,102175.94
2022-08-07T04:48:38.165Z,102182.62
2022-08-07T04:51:15.038Z,102179.88
2022-08-07T04:54:19.518Z,102182.64
2022-08-07T04:58:23.766Z,102185.22
2022-08-07T05:00:30.113Z,102188.71
2022-08-07T05:03:49.951Z,102189.69
2022-08-07T05:07:20.692Z,102187.52
2022-08-07T05:10:00.722Z,102187.60
2022-08-07T05:12:38.231Z,102187.60
2022-08-07T05:15:31.111Z,102184.11
2022-08-07T05:18:08.765Z,102186.08
2022-08-07T05:20:45.152Z,102187.04
2022-08-07T05:23:19.329Z,102182.05
2022-08-07T05:26:13.702Z,102187.55
2022-08-07T05:28:48.498Z,102186.44
2022-08-07T05:31:19.812Z,102187.73
2022-08-07T05:34:04.957Z,102186.46
2022-08-07T05:36:35.471Z,102185.36
2022-08-07T05:40:06.571Z,102189.23
2022-08-07T05:42:02.612Z,102184.89
2022-08-07T05:44:37.753Z,102185.77
2022-08-07T05:47:19.915Z,102184.04
2022-08-07T05:49:52.740Z,102184.73
2022-08-07T05:52:32.613Z,102182.55
2022-08-07T05:55:10.297Z,102183.75
2022-08-07T05:57:42.197Z,102186.35
2022-08-07T06:00:16.480Z,102190.50
2022-08-07T06:02:49.317Z,102191.74
2022-08-07T06:05:19.661Z,102192.98
2022-08-07T06:08:14.073Z,102194.29
2022-08-07T06:10:42.579Z,102197.02
2022-08-07T06:13:13.627Z,102192.02
2022-08-07T06:15:43.842Z,102192.17
2022-08-07T06:18:14.024Z,102191.83
2022-08-07T06:20:50.980Z,102189.45
2022-08-07T06:24:37.908Z,102191.63
2022-08-07T06:26:20.684Z,102185.79
2022-08-07T06:28:54.562Z,102189.10
2022-08-07T06:31:24.266Z,102194.70
2022-08-07T06:34:08.644Z,102192.84
2022-08-07T06:36:36.572Z,102189.13
2022-08-07T06:40:17.601Z,102186.54
2022-08-07T06:42:03.574Z,102185.77
2022-08-07T06:44:36.653Z,102180.53
2022-08-07T06:47:12.028Z,102183.05
2022-08-07T06:49:51.200Z,102183.98
2022-08-07T06:52:31.705Z,102182.30
2022-08-07T06:55:32.302Z,102186.42
2022-08-07T06:57:59.424Z,102186.84
2022-08-07T07:00:33.624Z,102182.92
2022-08-07T07:03:08.928Z,102179.50
2022-08-07T07:06:05.587Z,102178.64
2022-08-07T07:08:29.991Z,102176.33
2022-08-07T07:11:01.622Z,102179.19
2022-08-07T07:13:58.075Z,102169.16
2022-08-07T07:16:45.435Z,102171.31
2022-08-07T07:19:55.020Z,102174.33
2022-08-07T07:22:36.805Z,102175.98
2022-08-07T07:26:31.084Z,102173.66
2022-08-07T07:28:42.646Z,102174.35
2022-08-07T07:31:10.924Z,102169.20
2022-08-07T07:33:41.031Z,102167.07
2022-08-07T07:36:13.333Z,102167.67
2022-08-07T07:38:46.122Z,102169.37
2022-08-07T07:41:21.013Z,102166.55
2022-08-07T07:44:14.541Z,102165.69
2022-08-07T07:46:55.213Z,102159.39
2022-08-07T07:50:34.215Z,102158.92
2022-08-07T07:52:18.679Z,102156.45
2022-08-07T07:54:50.805Z,102151.02
2022-08-07T07:57:44.372Z,102143.73
2022-08-07T08:00:21.046Z,102142.39
2022-08-07T08:03:06.812Z,102136.09
2022-08-07T08:05:50.504Z,102142.03
2022-08-07T08:08:34.509Z,102139.05
2022-08-07T08:11:08.180Z,102132.66
2022-08-07T08:13:53.351Z,102122.64
2022-08-07T08:16:35.427Z,102129.33
2022-08-07T08:19:18.199Z,102126.58
2022-08-07T08:22:14.147Z,102121.38
2022-08-07T08:25:24.612Z,102123.17
2022-08-07T08:28:01.596Z,102126.16
2022-08-07T08:30:35.100Z,102121.34
2022-08-07T08:33:16.996Z,102115.23
2022-08-07T08:35:49.857Z,102111.48
2022-08-07T08:38:29.228Z,102113.11
2022-08-07T08:41:21.592Z,102109.94
2022-08-07T08:44:08.325Z,102115.13
2022-08-07T08:46:53.227Z,102107.75
2022-08-07T08:49:46.763Z,102107.97
2022-08-07T08:52:40.852Z,102110.30
2022-08-07T08:55:53.237Z,102103.04
2022-08-07T08:58:47.244Z,102102.67
2022-08-07T09:01:49.043Z,102098.01
2022-08-07T09:04:34.836Z,102099.64
2022-08-07T09:07:46.316Z,102095.02
2022-08-07T09:10:57.174Z,102092.23
2022-08-07T09:13:52.084Z,102092.56
2022-08-07T09:17:12.398Z,102094.48
2022-08-07T09:19:57.415Z,102091.67
2022-08-07T09:24:32.367Z,102094.65
2022-08-07T09:25:54.664Z,102086.81
2022-08-07T09:30:00.712Z,102082.74
2022-08-07T09:32:05.845Z,102076.31
2022-08-07T09:36:04.971Z,102076.64
2022-08-07T09:38:43.718Z,102069.52
2022-08-07T09:41:58.432Z,102068.99
2022-08-07T09:47:25.421Z,102068.03
2022-08-07T09:48:15.305Z,102067.31
2022-08-07T09:52:10.190Z,102060.48
2022-08-07T09:54:33.781Z,102056.88
2022-08-07T09:57:47.440Z,102056.91
2022-08-07T10:00:20.800Z,102054.52
2022-08-07T10:04:06.799Z,102051.97
2022-08-07T10:07:25.785Z,102044.27
2022-08-07T10:10:21.990Z,102040.11
2022-08-07T10:13:55.339Z,102043.48
2022-08-07T10:17:03.730Z,102034.70
2022-08-07T10:20:21.946Z,102031.70
2022-08-07T10:24:05.582Z,102028.64
2022-08-07T10:26:53.018Z,102023.35
2022-08-07T10:29:51.669Z,102019.63
2022-08-07T10:33:05.804Z,102014.14
2022-08-07T10:36:11.295Z,102010.02
2022-08-07T10:39:12.665Z,102009.23
2022-08-07T10:42:00.400Z,102004.59
2022-08-07T10:45:19.393Z,102001.41
2022-08-07T10:48:34.945Z,101999.92
2022-08-07T10:51:39.095Z,101990.65
2022-08-07T10:54:21.684Z,101990.52
2022-08-07T10:57:13.865Z,101983.86
2022-08-07T11:00:09.940Z,101983.20
2022-08-07T11:03:14.685Z,101984.19
2022-08-07T11:05:57.105Z,101986.70
2022-08-07T11:08:42.546Z,101980.25
2022-08-07T11:11:20.188Z,101982.36
2022-08-07T11:14:44.700Z,101978.80
2022-08-07T11:17:23.575Z,101976.65
2022-08-07T11:20:16.160Z,101971.83
2022-08-07T11:23:30.834Z,101970.30
2022-08-07T11:26:31.643Z,101964.98
2022-08-07T11:29:42.229Z,101959.22
2022-08-07T11:32:29.331Z,101954.77
2022-08-07T11:35:09.352Z,101955.98
2022-08-07T11:38:10.346Z,101951.89
2022-08-07T11:40:49.662Z,101946.77
2022-08-07T11:43:29.484Z,101947.63
2022-08-07T11:46:11.839Z,101946.15
2022-08-07T11:49:50.529Z,101945.06
2022-08-07T11:52:39.854Z,101941.73
2022-08-07T11:56:25.546Z,101939.67
2022-08-07T11:58:44.147Z,101932.57
2022-08-07T12:01:59.135Z,101928.81
2022-08-07T12:04:56.780Z,101926.79
2022-08-07T12:07:39.108Z,101925.77
2022-08-07T12:10:27.766Z,101918.39
2022-08-07T12:12:59.525Z,101917.83
2022-08-07T12:16:06.194Z,101912.14
2022-08-07T12:18:45.699Z,101913.31
2022-08-07T12:22:35.986Z,101911.33
2022-08-07T12:25:08.049Z,101911.45
2022-08-07T12:28:08.703Z,101902.90
2022-08-07T12:30:41.290Z,101899.31
2022-08-07T12:33:23.504Z,101899.30
2022-08-07T12:36:02.123Z,101899.74
2022-08-07T12:38:42.605Z,101898.08
2022-08-07T12:41:13.170Z,101896.61
2022-08-07T12:44:02.923Z,101894.90
2022-08-07T12:46:57.742Z,101893.20
2022-08-07T12:50:33.760Z,101890.94
2022-08-07T12:53:22.223Z,101889.37
2022-08-07T12:56:10.130Z,101889.51
2022-08-07T12:58:42.934Z,101885.94
2022-08-07T13:01:27.957Z,101881.63
2022-08-07T13:04:31.711Z,101875.86
2022-08-07T13:08:12.051Z,101878.18
2022-08-07T13:11:06.687Z,101874.91
2022-08-07T13:14:08.434Z,101863.10
2022-08-07T13:17:04.630Z,101857.87
2022-08-07T13:20:09.803Z,101853.59
2022-08-07T13:22:52.531Z,101854.77
2022-08-07T13:25:38.816Z,101851.19
2022-08-07T13:28:28.800Z,101846.23
2022-08-07T13:31:13.427Z,101839.73
2022-08-07T13:34:31.647Z,101838.50
2022-08-07T13:36:57.731Z,101836.38
2022-08-07T13:40:36.577Z,101836.88
2022-08-07T13:42:51.307Z,101828.51
2022-08-07T13:46:11.070Z,101829.25
2022-08-07T13:48:27.368Z,101826.80
2022-08-07T13:51:01.931Z,101822.96
2022-08-07T13:54:00.477Z,101822.36
2022-08-07T13:56:36.342Z,101824.63
2022-08-07T13:59:21.489Z,101824.60
2022-08-07T14:02:04.861Z,101826.17
2022-08-07T14:04:49.009Z,101827.95
2022-08-07T14:07:22.957Z,101826.29
2022-08-07T14:10:17.474Z,101822.02
2022-08-07T14:12:57.830Z,101819.94
2022-08-07T14:15:40.488Z,101814.84
2022-08-07T14:18:28.835Z,101818.08
2022-08-07T14:21:20.686Z,101809.39
2022-08-07T14:24:08.698Z,101811.50
2022-08-07T14:27:00.878Z,101801.56
2022-08-07T14:30:06.394Z,101793.45
2022-08-07T14:32:45.733Z,101793.98
2022-08-07T14:35:45.514Z,101795.80
2022-08-07T14:38:26.451Z,101792.34
2022-08-07T14:41:15.031Z,101789.65
2022-08-07T14:43:56.984Z,101787.48
2022-08-07T14:46:32.405Z,101787.55
2022-08-07T14:49:56.818Z,101779.55
2022-08-07T14:52:12.171Z,101783.10
2022-08-07T14:54:46.014Z,101781.12
2022-08-07T14:57:25.209Z,101774.73
2022-08-07T15:00:20.784Z,101773.75
2022-08-07T15:03:18.805Z,101771.52
2022-08-07T15:08:54.523Z,101763.80
2022-08-07T15:11:54.258Z,101765.85
2022-08-07T15:14:25.457Z,101765.96
2022-08-07T15:17:02.707Z,101760.75
2022-08-07T15:20:30.905Z,101760.16
2022-08-07T15:22:33.459Z,101761.10
2022-08-07T15:25:17.305Z,101752.77
2022-08-07T15:28:32.503Z,101745.57
2022-08-07T15:31:04.518Z,101743.36
2022-08-07T15:33:33.404Z,101744.40
2022-08-07T15:38:59.682Z,101742.48
2022-08-07T15:42:43.838Z,101745.86
2022-08-07T15:44:23.765Z,101742.58
2022-08-07T15:47:08.907Z,101743.73
2022-08-07T15:50:05.634Z,101744.51
2022-08-07T15:52:39.862Z,101743.03
2022-08-07T15:55:13.083Z,101740.48
2022-08-07T15:57:48.711Z,101739.48
2022-08-07T16:00:31.195Z,101737.90
2022-08-07T16:03:21.902Z,101735.30
2022-08-07T16:06:02.277Z,101730.13
2022-08-07T16:08:38.740Z,101734.81
2022-08-07T16:11:26.965Z,101729.56
2022-08-07T16:14:11.908Z,101727.73
2022-08-07T16:17:16.146Z,101730.20
2022-08-07T16:20:33.030Z,101731.64
2022-08-07T16:23:54.150Z,101728.05
2022-08-07T16:26:16.730Z,101730.11
2022-08-07T16:30:09.137Z,101727.80
2022-08-07T16:32:32.911Z,101728.08
2022-08-07T16:35:58.509Z,101726.08
2022-08-07T16:39:00.510Z,101723.38
2022-08-07T16:41:54.639Z,101725.82
2022-08-07T16:45:15.410Z,101726.17
2022-08-07T16:48:16.652Z,101718.34
2022-08-07T16:51:51.788Z,101726.31
2022-08-07T16:54:21.374Z,101726.95
2022-08-07T16:58:01.752Z,101730.03
2022-08-07T17:00:57.323Z,101728.54
2022-08-07T17:03:59.842Z,101730.52
2022-08-07T17:07:03.425Z,101728.17
2022-08-07T17:10:06.939Z,101725.86
2022-08-07T17:13:01.457Z,101728.04
2022-08-07T17:15:50.640Z,101728.46
2022-08-07T17:18:32.894Z,101727.00
2022-08-07T17:21:03.808Z,101728.33
2022-08-07T17:24:14.391Z,101733.00
2022-08-07T17:27:03.161Z,101733.16
2022-08-07T17:30:14.459Z,101730.90
2022-08-07T17:34:10.162Z,101732.98
2022-08-07T17:36:27.143Z,101733.40
2022-08-07T17:39:57.769Z,101731.11
2022-08-07T17:42:58.567Z,101736.17
2022-08-07T17:45:42.239Z,101736.89
2022-08-07T17:48:24.659Z,101740.55
2022-08-07T17:52:00.368Z,101735.36
2022-08-07T17:54:54.617Z,101738.44
2022-08-07T17:57:32.104Z,101739.04
2022-08-07T18:00:33.312Z,101739.23
2022-08-07T18:03:25.567Z,101736.70
2022-08-07T18:06:09.371Z,101732.20
2022-08-07T18:09:01.885Z,101734.71
2022-08-07T18:12:16.380Z,101738.51
2022-08-07T18:15:22.667Z,101736.89
2022-08-07T18:18:36.668Z,101734.11
2022-08-07T18:21:37.132Z,101736.40
2022-08-07T18:24:33.284Z,101733.45
2022-08-07T18:27:39.332Z,101733.79
2022-08-07T18:30:33.112Z,101736.74
2022-08-07T18:33:25.723Z,101736.34
2022-08-07T18:36:17.613Z,101738.25
2022-08-07T18:40:07.290Z,101746.27
2022-08-07T18:42:56.800Z,101750.54
2022-08-07T18:46:24.553Z,101749.06
2022-08-07T18:50:19.375Z,101754.60
2022-08-07T18:52:52.923Z,101754.97
2022-08-07T18:56:01.860Z,101763.94
2022-08-07T18:58:43.076Z,101761.80
2022-08-07T19:02:32.871Z,101766.99
2022-08-07T19:04:57.669Z,101769.17
2022-08-07T19:08:07.821Z,101773.90
2022-08-07T19:10:59.476Z,101776.15
2022-08-07T19:13:46.128Z,101775.79
2022-08-07T19:17:07.766Z,101778.95
2022-08-07T19:20:25.019Z,101778.52
2022-08-07T19:23:18.718Z,101778.10
2022-08-07T19:26:24.870Z,101786.42
2022-08-07T19:30:56.893Z,101784.73
2022-08-07T19:32:10.232Z,101791.23
2022-08-07T19:34:43.908Z,101794.82
2022-08-07T19:37:22.278Z,101795.44
2022-08-07T19:40:02.669Z,101796.60
2022-08-07T19:42:33.624Z,101801.33
2022-08-07T19:46:01.161Z,101801.16
2022-08-07T19:48:19.065Z,101804.19
2022-08-07T19:50:54.577Z,101807.21
2022-08-07T19:54:34.051Z,101811.35
2022-08-07T19:58:02.228Z,101814.22
2022-08-07T19:59:16.535Z,101814.59
2022-08-07T20:01:57.883Z,101820.11
2022-08-07T20:04:31.132Z,101819.61
2022-08-07T20:07:01.115Z,101822.30
2022-08-07T20:10:36.677Z,101820.89
2022-08-07T20:12:34.557Z,101820.55
2022-08-07T20:15:11.741Z,101820.95
2022-08-07T20:18:01.282Z,101818.48
2022-08-07T20:20:32.745Z,101821.16
2022-08-07T20:23:22.842Z,101826.15
2022-08-07T20:25:55.843Z,101827.77
2022-08-07T20:28:30.717Z,101827.42
2022-08-07T20:30:59.386Z,101830.63
2022-08-07T20:33:36.564Z,101826.01
2022-08-07T20:36:08.805Z,101827.44
2022-08-07T20:38:59.601Z,101830.48
2022-08-07T20:41:33.976Z,101830.30
2022-08-07T20:44:02.876Z,101830.48
2022-08-07T20:46:43.212Z,101831.91
2022-08-07T20:49:58.311Z,101834.23
2022-08-07T20:52:16.682Z,101835.11
2022-08-07T20:54:53.204Z,101837.06
2022-08-07T20:57:28.158Z,101836.35
2022-08-07T21:00:09.198Z,101839.36
2022-08-07T21:03:00.712Z,101845.02
2022-08-07T21:05:51.380Z,101844.66
2022-08-07T21:08:52.639Z,101849.45
2022-08-07T21:11:40.024Z,101844.79
2022-08-07T21:14:31.952Z,101846.20
2022-08-07T21:18:02.149Z,101846.90
2022-08-07T21:20:04.884Z,101845.65
2022-08-07T21:22:51.288Z,101845.30
2022-08-07T21:25:42.580Z,101846.70
2022-08-07T21:28:48.197Z,101847.91
2022-08-07T21:31:49.507Z,101852.53
2022-08-07T21:34:32.305Z,101850.55
2022-08-07T21:37:13.392Z,101849.30
2022-08-07T21:40:07.445Z,101848.91
2022-08-07T21:42:54.822Z,101847.30
2022-08-07T21:46:08.153Z,101852.23
2022-08-07T21:48:59.774Z,101849.55
2022-08-07T21:51:32.321Z,101848.46
2022-08-07T21:54:18.671Z,101848.41
2022-08-07T21:57:31.496Z,101849.67
2022-08-07T22:00:12.248Z,101853.40
2022-08-07T22:03:31.644Z,101851.23
2022-08-07T22:06:07.685Z,101851.13
2022-08-07T22:09:06.947Z,101852.92
2022-08-07T22:11:53.371Z,101854.85
2022-08-07T22:14:38.848Z,101853.58
2022-08-07T22:17:36.107Z,101853.04
2022-08-07T22:20:23.995Z,101849.84
2022-08-07T22:23:03.380Z,101850.17
2022-08-07T22:25:45.147Z,101849.79
2022-08-07T22:28:31.941Z,101854.88
2022-08-07T22:31:59.346Z,101857.70
2022-08-07T22:34:58.305Z,101853.77
2022-08-07T22:38:04.731Z,101856.39
2022-08-07T22:40:51.689Z,101851.96
2022-08-07T22:43:33.934Z,101851.74
2022-08-07T22:47:02.697Z,101853.52
2022-08-07T22:49:37.912Z,101856.13
2022-08-07T22:52:37.101Z,101854.19
2022-08-07T22:55:38.492Z,101854.85
2022-08-07T22:58:49.634Z,101859.06
2022-08-07T23:01:42.168Z,101859.95
2022-08-07T23:04:58.232Z,101855.45
2022-08-07T23:08:46.175Z,101857.71
2022-08-07T23:11:22.408Z,101861.73
2022-08-07T23:14:16.455Z,101865.77
2022-08-07T23:17:12.725Z,101868.46
2022-08-07T23:20:52.827Z,101867.66
2022-08-07T23:24:06.005Z,101870.17
2022-08-07T23:27:33.501Z,101871.89
2022-08-07T23:30:38.397Z,101872.64
2022-08-07T23:34:23.416Z,101874.34
2022-08-07T23:36:22.948Z,101872.28
2022-08-07T23:39:04.836Z,101871.92
2022-08-07T23:42:21.963Z,101872.94
2022-08-07T23:45:33.121Z,101869.55
2022-08-07T23:48:24.980Z,101869.35
2022-08-07T23:53:16.846Z,101872.84
2022-08-07T23:54:36.052Z,101871.92
2022-08-07T23:57:22.217Z,101870.09
